sensor_id;sensor_type;location;lat;lon;timestamp;P1;durP1;ratioP1;P2;durP2;ratioP2
15096;SDS011;7649;52.084;7.478;2024-03-02T00:01:09;6.40;;;4.33;;
15096;SDS011;7649;52.084;7.478;2024-03-02T00:03:38;5.73;;;4.30;;
15096;SDS011;7649;52.084;7.478;2024-03-02T00:06:07;5.60;;;4.30;;
15096;SDS011;7649;52.084;7.478;2024-03-02T00:08:35;6.43;;;4.60;;
15096;SDS011;7649;52.084;7.478;2024-03-02T00:11:04;5.20;;;4.70;;
15096;SDS011;7649;52.084;7.478;2024-03-02T00:13:33;4.87;;;4.43;;
15096;SDS011;7649;52.084;7.478;2024-03-02T00:16:02;5.30;;;4.80;;
15096;SDS011;7649;52.084;7.478;2024-03-02T00:18:35;4.63;;;4.23;;
15096;SDS011;7649;52.084;7.478;2024-03-02T00:21:04;5.37;;;4.87;;
15096;SDS011;7649;52.084;7.478;2024-03-02T00:23:35;4.87;;;4.37;;
15096;SDS011;7649;52.084;7.478;2024-03-02T00:26:05;5.40;;;4.90;;
15096;SDS011;7649;52.084;7.478;2024-03-02T00:28:35;5.67;;;4.40;;
15096;SDS011;7649;52.084;7.478;2024-03-02T00:31:05;5.10;;;4.60;;
15096;SDS011;7649;52.084;7.478;2024-03-02T00:33:36;5.03;;;4.17;;
15096;SDS011;7649;52.084;7.478;2024-03-02T00:36:07;4.87;;;4.37;;
15096;SDS011;7649;52.084;7.478;2024-03-02T00:38:41;5.67;;;4.23;;
15096;SDS011;7649;52.084;7.478;2024-03-02T00:41:15;4.97;;;4.47;;
15096;SDS011;7649;52.084;7.478;2024-03-02T00:43:45;4.50;;;4.10;;
15096;SDS011;7649;52.084;7.478;2024-03-02T00:46:18;4.80;;;4.13;;
15096;SDS011;7649;52.084;7.478;2024-03-02T00:48:54;4.80;;;4.40;;
15096;SDS011;7649;52.084;7.478;2024-03-02T00:51:23;4.70;;;4.30;;
15096;SDS011;7649;52.084;7.478;2024-03-02T00:53:53;4.43;;;4.03;;
15096;SDS011;7649;52.084;7.478;2024-03-02T00:56:23;4.53;;;4.10;;
15096;SDS011;7649;52.084;7.478;2024-03-02T00:58:52;4.60;;;4.10;;
15096;SDS011;7649;52.084;7.478;2024-03-02T01:01:21;4.47;;;4.07;;
15096;SDS011;7649;52.084;7.478;2024-03-02T01:03:50;4.57;;;4.17;;
15096;SDS011;7649;52.084;7.478;2024-03-02T01:06:20;4.63;;;4.13;;
15096;SDS011;7649;52.084;7.478;2024-03-02T01:08:50;4.60;;;3.80;;
15096;SDS011;7649;52.084;7.478;2024-03-02T01:11:19;4.13;;;3.73;;
15096;SDS011;7649;52.084;7.478;2024-03-02T01:13:50;4.50;;;3.90;;
15096;SDS011;7649;52.084;7.478;2024-03-02T01:16:19;3.87;;;3.47;;
15096;SDS011;7649;52.084;7.478;2024-03-02T01:18:49;4.40;;;4.00;;
15096;SDS011;7649;52.084;7.478;2024-03-02T01:21:18;4.33;;;3.93;;
15096;SDS011;7649;52.084;7.478;2024-03-02T01:23:50;4.13;;;3.67;;
15096;SDS011;7649;52.084;7.478;2024-03-02T01:26:18;4.80;;;3.77;;
15096;SDS011;7649;52.084;7.478;2024-03-02T01:28:47;3.93;;;3.63;;
15096;SDS011;7649;52.084;7.478;2024-03-02T01:31:16;5.37;;;3.93;;
15096;SDS011;7649;52.084;7.478;2024-03-02T01:33:44;4.13;;;3.80;;
15096;SDS011;7649;52.084;7.478;2024-03-02T01:36:13;3.70;;;3.40;;
15096;SDS011;7649;52.084;7.478;2024-03-02T01:38:41;3.97;;;3.60;;
15096;SDS011;7649;52.084;7.478;2024-03-02T01:41:11;4.17;;;3.77;;
15096;SDS011;7649;52.084;7.478;2024-03-02T01:43:40;4.27;;;3.50;;
15096;SDS011;7649;52.084;7.478;2024-03-02T01:46:08;3.97;;;3.20;;
15096;SDS011;7649;52.084;7.478;2024-03-02T01:48:37;3.57;;;3.20;;
15096;SDS011;7649;52.084;7.478;2024-03-02T01:51:06;4.23;;;3.83;;
15096;SDS011;7649;52.084;7.478;2024-03-02T01:53:35;3.83;;;3.53;;
15096;SDS011;7649;52.084;7.478;2024-03-02T01:56:03;3.93;;;3.50;;
15096;SDS011;7649;52.084;7.478;2024-03-02T01:58:34;4.20;;;3.80;;
15096;SDS011;7649;52.084;7.478;2024-03-02T02:01:02;4.30;;;3.90;;
15096;SDS011;7649;52.084;7.478;2024-03-02T02:03:31;4.13;;;3.60;;
15096;SDS011;7649;52.084;7.478;2024-03-02T02:06:00;4.20;;;3.80;;
15096;SDS011;7649;52.084;7.478;2024-03-02T02:08:28;3.93;;;3.63;;
15096;SDS011;7649;52.084;7.478;2024-03-02T02:10:56;4.10;;;3.70;;
15096;SDS011;7649;52.084;7.478;2024-03-02T02:13:25;4.47;;;4.07;;
15096;SDS011;7649;52.084;7.478;2024-03-02T02:15:55;4.67;;;3.70;;
15096;SDS011;7649;52.084;7.478;2024-03-02T02:18:23;4.67;;;3.80;;
15096;SDS011;7649;52.084;7.478;2024-03-02T02:20:52;3.83;;;3.53;;
15096;SDS011;7649;52.084;7.478;2024-03-02T02:23:22;3.83;;;3.50;;
15096;SDS011;7649;52.084;7.478;2024-03-02T02:25:50;4.10;;;3.70;;
15096;SDS011;7649;52.084;7.478;2024-03-02T02:28:19;4.10;;;3.70;;
15096;SDS011;7649;52.084;7.478;2024-03-02T02:30:47;4.23;;;3.80;;
15096;SDS011;7649;52.084;7.478;2024-03-02T02:33:16;4.53;;;4.13;;
15096;SDS011;7649;52.084;7.478;2024-03-02T02:35:44;4.03;;;3.43;;
15096;SDS011;7649;52.084;7.478;2024-03-02T02:38:13;3.73;;;3.43;;
15096;SDS011;7649;52.084;7.478;2024-03-02T02:40:43;4.53;;;4.00;;
15096;SDS011;7649;52.084;7.478;2024-03-02T02:43:12;7.63;;;4.00;;
15096;SDS011;7649;52.084;7.478;2024-03-02T02:45:41;4.80;;;4.20;;
15096;SDS011;7649;52.084;7.478;2024-03-02T02:48:09;4.20;;;3.80;;
15096;SDS011;7649;52.084;7.478;2024-03-02T02:50:38;4.30;;;3.90;;
15096;SDS011;7649;52.084;7.478;2024-03-02T02:53:07;4.50;;;4.10;;
15096;SDS011;7649;52.084;7.478;2024-03-02T02:55:36;4.20;;;3.80;;
15096;SDS011;7649;52.084;7.478;2024-03-02T02:58:08;4.50;;;3.90;;
15096;SDS011;7649;52.084;7.478;2024-03-02T03:00:36;4.37;;;3.97;;
15096;SDS011;7649;52.084;7.478;2024-03-02T03:03:05;4.80;;;4.30;;
15096;SDS011;7649;52.084;7.478;2024-03-02T03:05:33;4.57;;;4.17;;
15096;SDS011;7649;52.084;7.478;2024-03-02T03:08:02;4.70;;;4.30;;
15096;SDS011;7649;52.084;7.478;2024-03-02T03:10:31;5.07;;;4.57;;
15096;SDS011;7649;52.084;7.478;2024-03-02T03:12:59;5.83;;;4.77;;
15096;SDS011;7649;52.084;7.478;2024-03-02T03:15:30;5.20;;;4.40;;
15096;SDS011;7649;52.084;7.478;2024-03-02T03:17:58;5.10;;;4.63;;
15096;SDS011;7649;52.084;7.478;2024-03-02T03:20:26;4.93;;;4.43;;
15096;SDS011;7649;52.084;7.478;2024-03-02T03:22:55;4.67;;;4.10;;
15096;SDS011;7649;52.084;7.478;2024-03-02T03:25:24;5.13;;;4.67;;
15096;SDS011;7649;52.084;7.478;2024-03-02T03:27:53;4.73;;;4.33;;
15096;SDS011;7649;52.084;7.478;2024-03-02T03:30:21;6.00;;;4.73;;
15096;SDS011;7649;52.084;7.478;2024-03-02T03:32:51;6.33;;;4.57;;
15096;SDS011;7649;52.084;7.478;2024-03-02T03:35:19;6.43;;;4.57;;
15096;SDS011;7649;52.084;7.478;2024-03-02T03:37:49;4.87;;;4.47;;
15096;SDS011;7649;52.084;7.478;2024-03-02T03:40:17;5.00;;;4.33;;
15096;SDS011;7649;52.084;7.478;2024-03-02T03:42:46;4.93;;;4.37;;
15096;SDS011;7649;52.084;7.478;2024-03-02T03:45:15;5.40;;;4.90;;
15096;SDS011;7649;52.084;7.478;2024-03-02T03:47:43;4.63;;;4.23;;
15096;SDS011;7649;52.084;7.478;2024-03-02T03:50:13;5.40;;;4.90;;
15096;SDS011;7649;52.084;7.478;2024-03-02T03:52:42;4.93;;;4.43;;
15096;SDS011;7649;52.084;7.478;2024-03-02T03:55:11;4.87;;;4.27;;
15096;SDS011;7649;52.084;7.478;2024-03-02T03:57:40;5.33;;;4.83;;
15096;SDS011;7649;52.084;7.478;2024-03-02T04:00:08;5.17;;;4.67;;
15096;SDS011;7649;52.084;7.478;2024-03-02T04:02:38;5.00;;;4.47;;
15096;SDS011;7649;52.084;7.478;2024-03-02T04:05:07;5.53;;;4.03;;
15096;SDS011;7649;52.084;7.478;2024-03-02T04:07:39;4.80;;;4.40;;
15096;SDS011;7649;52.084;7.478;2024-03-02T04:10:10;4.80;;;4.40;;
15096;SDS011;7649;52.084;7.478;2024-03-02T04:12:39;4.87;;;4.30;;
15096;SDS011;7649;52.084;7.478;2024-03-02T04:15:08;4.67;;;4.23;;
15096;SDS011;7649;52.084;7.478;2024-03-02T04:17:36;5.57;;;4.97;;
15096;SDS011;7649;52.084;7.478;2024-03-02T04:20:05;5.83;;;4.73;;
15096;SDS011;7649;52.084;7.478;2024-03-02T04:22:34;4.93;;;4.47;;
15096;SDS011;7649;52.084;7.478;2024-03-02T04:25:04;4.90;;;4.40;;
15096;SDS011;7649;52.084;7.478;2024-03-02T04:27:33;5.57;;;4.50;;
15096;SDS011;7649;52.084;7.478;2024-03-02T04:30:03;5.20;;;4.40;;
15096;SDS011;7649;52.084;7.478;2024-03-02T04:32:32;5.03;;;4.53;;
15096;SDS011;7649;52.084;7.478;2024-03-02T04:35:03;4.80;;;4.40;;
15096;SDS011;7649;52.084;7.478;2024-03-02T04:37:31;5.53;;;4.77;;
15096;SDS011;7649;52.084;7.478;2024-03-02T04:40:00;4.47;;;4.07;;
15096;SDS011;7649;52.084;7.478;2024-03-02T04:42:30;6.03;;;4.67;;
15096;SDS011;7649;52.084;7.478;2024-03-02T04:44:58;5.57;;;4.40;;
15096;SDS011;7649;52.084;7.478;2024-03-02T04:47:26;5.10;;;4.60;;
15096;SDS011;7649;52.084;7.478;2024-03-02T04:49:55;6.17;;;4.90;;
15096;SDS011;7649;52.084;7.478;2024-03-02T04:52:23;6.13;;;4.70;;
15096;SDS011;7649;52.084;7.478;2024-03-02T04:54:52;5.57;;;4.73;;
15096;SDS011;7649;52.084;7.478;2024-03-02T04:57:57;5.67;;;4.63;;
15096;SDS011;7649;52.084;7.478;2024-03-02T05:00:25;5.83;;;5.17;;
15096;SDS011;7649;52.084;7.478;2024-03-02T05:02:54;5.23;;;4.73;;
15096;SDS011;7649;52.084;7.478;2024-03-02T05:05:22;5.97;;;4.80;;
15096;SDS011;7649;52.084;7.478;2024-03-02T05:07:51;5.33;;;4.80;;
15096;SDS011;7649;52.084;7.478;2024-03-02T05:10:19;5.73;;;4.43;;
15096;SDS011;7649;52.084;7.478;2024-03-02T05:12:47;6.50;;;4.80;;
15096;SDS011;7649;52.084;7.478;2024-03-02T05:15:34;5.20;;;4.70;;
15096;SDS011;7649;52.084;7.478;2024-03-02T05:18:02;5.20;;;4.70;;
15096;SDS011;7649;52.084;7.478;2024-03-02T05:20:31;4.83;;;4.43;;
15096;SDS011;7649;52.084;7.478;2024-03-02T05:23:00;5.77;;;4.57;;
15096;SDS011;7649;52.084;7.478;2024-03-02T05:25:28;4.80;;;4.40;;
15096;SDS011;7649;52.084;7.478;2024-03-02T05:27:57;4.40;;;4.00;;
15096;SDS011;7649;52.084;7.478;2024-03-02T05:30:25;8.03;;;4.40;;
15096;SDS011;7649;52.084;7.478;2024-03-02T05:32:55;5.83;;;4.83;;
15096;SDS011;7649;52.084;7.478;2024-03-02T05:35:24;4.53;;;4.13;;
15096;SDS011;7649;52.084;7.478;2024-03-02T05:37:53;4.90;;;4.40;;
15096;SDS011;7649;52.084;7.478;2024-03-02T05:40:21;5.57;;;4.60;;
15096;SDS011;7649;52.084;7.478;2024-03-02T05:42:49;4.60;;;4.20;;
15096;SDS011;7649;52.084;7.478;2024-03-02T05:45:18;4.93;;;4.40;;
15096;SDS011;7649;52.084;7.478;2024-03-02T05:47:46;4.80;;;4.40;;
15096;SDS011;7649;52.084;7.478;2024-03-02T05:50:16;4.50;;;3.93;;
15096;SDS011;7649;52.084;7.478;2024-03-02T05:52:46;4.70;;;4.23;;
15096;SDS011;7649;52.084;7.478;2024-03-02T05:55:14;5.30;;;4.30;;
15096;SDS011;7649;52.084;7.478;2024-03-02T05:57:43;6.90;;;4.23;;
15096;SDS011;7649;52.084;7.478;2024-03-02T06:00:25;4.60;;;4.13;;
15096;SDS011;7649;52.084;7.478;2024-03-02T06:02:54;4.53;;;4.07;;
15096;SDS011;7649;52.084;7.478;2024-03-02T06:05:24;8.10;;;4.40;;
15096;SDS011;7649;52.084;7.478;2024-03-02T06:07:52;5.10;;;4.40;;
15096;SDS011;7649;52.084;7.478;2024-03-02T06:10:21;9.07;;;4.93;;
15096;SDS011;7649;52.084;7.478;2024-03-02T06:12:49;5.93;;;5.33;;
15096;SDS011;7649;52.084;7.478;2024-03-02T06:15:18;8.63;;;6.17;;
15096;SDS011;7649;52.084;7.478;2024-03-02T06:17:46;11.20;;;7.13;;
15096;SDS011;7649;52.084;7.478;2024-03-02T06:20:15;6.97;;;5.27;;
15096;SDS011;7649;52.084;7.478;2024-03-02T06:22:44;8.07;;;5.80;;
15096;SDS011;7649;52.084;7.478;2024-03-02T06:25:13;7.07;;;5.43;;
15096;SDS011;7649;52.084;7.478;2024-03-02T06:27:41;6.13;;;4.83;;
15096;SDS011;7649;52.084;7.478;2024-03-02T06:30:10;5.13;;;4.40;;
15096;SDS011;7649;52.084;7.478;2024-03-02T06:32:39;4.87;;;4.27;;
15096;SDS011;7649;52.084;7.478;2024-03-02T06:35:07;4.83;;;4.37;;
15096;SDS011;7649;52.084;7.478;2024-03-02T06:37:37;4.70;;;4.20;;
15096;SDS011;7649;52.084;7.478;2024-03-02T06:40:08;7.27;;;4.50;;
15096;SDS011;7649;52.084;7.478;2024-03-02T06:42:36;6.07;;;4.33;;
15096;SDS011;7649;52.084;7.478;2024-03-02T06:45:06;6.33;;;4.77;;
15096;SDS011;7649;52.084;7.478;2024-03-02T06:47:34;5.63;;;4.57;;
15096;SDS011;7649;52.084;7.478;2024-03-02T06:50:03;5.17;;;4.67;;
15096;SDS011;7649;52.084;7.478;2024-03-02T06:52:33;6.77;;;4.80;;
15096;SDS011;7649;52.084;7.478;2024-03-02T06:55:01;4.57;;;4.03;;
15096;SDS011;7649;52.084;7.478;2024-03-02T06:57:32;5.90;;;4.20;;
15096;SDS011;7649;52.084;7.478;2024-03-02T07:00:00;5.40;;;4.30;;
15096;SDS011;7649;52.084;7.478;2024-03-02T07:02:31;4.20;;;3.80;;
15096;SDS011;7649;52.084;7.478;2024-03-02T07:04:59;4.57;;;4.17;;
15096;SDS011;7649;52.084;7.478;2024-03-02T07:07:28;4.87;;;3.70;;
15096;SDS011;7649;52.084;7.478;2024-03-02T07:09:56;5.37;;;3.80;;
15096;SDS011;7649;52.084;7.478;2024-03-02T07:12:25;4.93;;;4.43;;
15096;SDS011;7649;52.084;7.478;2024-03-02T07:14:55;5.90;;;4.50;;
15096;SDS011;7649;52.084;7.478;2024-03-02T07:17:55;4.20;;;3.80;;
15096;SDS011;7649;52.084;7.478;2024-03-02T07:20:24;4.97;;;3.93;;
15096;SDS011;7649;52.084;7.478;2024-03-02T07:22:52;5.37;;;4.23;;
15096;SDS011;7649;52.084;7.478;2024-03-02T07:25:21;7.10;;;5.30;;
15096;SDS011;7649;52.084;7.478;2024-03-02T07:27:52;9.00;;;6.30;;
15096;SDS011;7649;52.084;7.478;2024-03-02T07:30:21;8.27;;;5.63;;
15096;SDS011;7649;52.084;7.478;2024-03-02T07:32:50;7.43;;;5.73;;
15096;SDS011;7649;52.084;7.478;2024-03-02T07:35:19;5.83;;;5.23;;
15096;SDS011;7649;52.084;7.478;2024-03-02T07:37:48;6.07;;;5.47;;
15096;SDS011;7649;52.084;7.478;2024-03-02T07:40:16;6.87;;;5.03;;
15096;SDS011;7649;52.084;7.478;2024-03-02T07:42:45;8.30;;;5.47;;
15096;SDS011;7649;52.084;7.478;2024-03-02T07:45:13;6.00;;;5.07;;
15096;SDS011;7649;52.084;7.478;2024-03-02T07:47:43;4.87;;;4.37;;
15096;SDS011;7649;52.084;7.478;2024-03-02T07:50:12;6.03;;;4.40;;
15096;SDS011;7649;52.084;7.478;2024-03-02T07:52:40;7.13;;;4.50;;
15096;SDS011;7649;52.084;7.478;2024-03-02T07:55:08;4.90;;;4.40;;
15096;SDS011;7649;52.084;7.478;2024-03-02T07:57:37;5.60;;;4.63;;
15096;SDS011;7649;52.084;7.478;2024-03-02T08:00:06;6.30;;;4.33;;
15096;SDS011;7649;52.084;7.478;2024-03-02T08:02:36;5.63;;;4.23;;
15096;SDS011;7649;52.084;7.478;2024-03-02T08:05:06;5.33;;;4.30;;
15096;SDS011;7649;52.084;7.478;2024-03-02T08:07:35;4.57;;;4.00;;
15096;SDS011;7649;52.084;7.478;2024-03-02T08:10:03;4.73;;;4.03;;
15096;SDS011;7649;52.084;7.478;2024-03-02T08:12:32;4.20;;;3.80;;
15096;SDS011;7649;52.084;7.478;2024-03-02T08:15:00;5.90;;;4.03;;
15096;SDS011;7649;52.084;7.478;2024-03-02T08:17:29;4.80;;;4.10;;
15096;SDS011;7649;52.084;7.478;2024-03-02T08:20:00;9.77;;;3.87;;
15096;SDS011;7649;52.084;7.478;2024-03-02T08:22:30;4.17;;;3.60;;
15096;SDS011;7649;52.084;7.478;2024-03-02T08:24:58;4.23;;;3.67;;
15096;SDS011;7649;52.084;7.478;2024-03-02T08:27:27;3.97;;;3.60;;
15096;SDS011;7649;52.084;7.478;2024-03-02T08:29:55;4.10;;;3.00;;
15096;SDS011;7649;52.084;7.478;2024-03-02T08:32:24;4.57;;;3.30;;
15096;SDS011;7649;52.084;7.478;2024-03-02T08:34:52;3.30;;;3.00;;
15096;SDS011;7649;52.084;7.478;2024-03-02T08:37:21;3.37;;;3.00;;
15096;SDS011;7649;52.084;7.478;2024-03-02T08:39:51;3.80;;;3.03;;
15096;SDS011;7649;52.084;7.478;2024-03-02T08:42:20;3.03;;;2.73;;
15096;SDS011;7649;52.084;7.478;2024-03-02T08:44:50;3.40;;;3.10;;
15096;SDS011;7649;52.084;7.478;2024-03-02T08:47:18;3.67;;;2.80;;
15096;SDS011;7649;52.084;7.478;2024-03-02T08:49:47;3.47;;;3.03;;
15096;SDS011;7649;52.084;7.478;2024-03-02T08:52:15;3.00;;;2.80;;
15096;SDS011;7649;52.084;7.478;2024-03-02T08:54:44;3.50;;;2.70;;
15096;SDS011;7649;52.084;7.478;2024-03-02T08:57:14;4.00;;;2.93;;
15096;SDS011;7649;52.084;7.478;2024-03-02T08:59:43;3.53;;;2.50;;
15096;SDS011;7649;52.084;7.478;2024-03-02T09:02:11;4.23;;;3.27;;
15096;SDS011;7649;52.084;7.478;2024-03-02T09:04:39;5.10;;;2.70;;
15096;SDS011;7649;52.084;7.478;2024-03-02T09:07:09;3.17;;;2.60;;
15096;SDS011;7649;52.084;7.478;2024-03-02T09:09:37;4.13;;;2.63;;
15096;SDS011;7649;52.084;7.478;2024-03-02T09:12:06;4.10;;;2.90;;
15096;SDS011;7649;52.084;7.478;2024-03-02T09:14:36;3.13;;;2.93;;
15096;SDS011;7649;52.084;7.478;2024-03-02T09:17:05;4.97;;;2.97;;
15096;SDS011;7649;52.084;7.478;2024-03-02T09:19:34;3.83;;;2.93;;
15096;SDS011;7649;52.084;7.478;2024-03-02T09:22:02;3.10;;;2.50;;
15096;SDS011;7649;52.084;7.478;2024-03-02T09:24:32;3.00;;;2.53;;
15096;SDS011;7649;52.084;7.478;2024-03-02T09:27:00;7.17;;;3.17;;
15096;SDS011;7649;52.084;7.478;2024-03-02T09:29:29;3.93;;;2.70;;
15096;SDS011;7649;52.084;7.478;2024-03-02T09:31:58;6.67;;;2.77;;
15096;SDS011;7649;52.084;7.478;2024-03-02T09:34:27;4.73;;;3.03;;
15096;SDS011;7649;52.084;7.478;2024-03-02T09:36:55;4.53;;;3.13;;
15096;SDS011;7649;52.084;7.478;2024-03-02T09:39:24;4.47;;;2.63;;
15096;SDS011;7649;52.084;7.478;2024-03-02T09:41:52;3.20;;;2.80;;
15096;SDS011;7649;52.084;7.478;2024-03-02T09:44:21;3.67;;;2.70;;
15096;SDS011;7649;52.084;7.478;2024-03-02T09:46:51;4.13;;;2.50;;
15096;SDS011;7649;52.084;7.478;2024-03-02T09:49:21;2.97;;;2.40;;
15096;SDS011;7649;52.084;7.478;2024-03-02T09:51:50;3.27;;;2.60;;
15096;SDS011;7649;52.084;7.478;2024-03-02T09:54:18;4.00;;;3.00;;
15096;SDS011;7649;52.084;7.478;2024-03-02T09:56:49;2.63;;;2.43;;
15096;SDS011;7649;52.084;7.478;2024-03-02T09:59:17;4.50;;;3.10;;
15096;SDS011;7649;52.084;7.478;2024-03-02T10:01:55;6.77;;;2.90;;
15096;SDS011;7649;52.084;7.478;2024-03-02T10:04:26;4.10;;;2.60;;
15096;SDS011;7649;52.084;7.478;2024-03-02T10:07:11;3.07;;;2.57;;
15096;SDS011;7649;52.084;7.478;2024-03-02T10:09:39;5.90;;;3.03;;
15096;SDS011;7649;52.084;7.478;2024-03-02T10:12:09;3.23;;;2.70;;
15096;SDS011;7649;52.084;7.478;2024-03-02T10:14:37;3.20;;;2.90;;
15096;SDS011;7649;52.084;7.478;2024-03-02T10:17:06;3.53;;;2.70;;
15096;SDS011;7649;52.084;7.478;2024-03-02T10:19:37;3.70;;;2.60;;
15096;SDS011;7649;52.084;7.478;2024-03-02T10:22:06;5.50;;;2.70;;
15096;SDS011;7649;52.084;7.478;2024-03-02T10:24:36;3.87;;;2.73;;
15096;SDS011;7649;52.084;7.478;2024-03-02T10:27:08;2.63;;;2.43;;
15096;SDS011;7649;52.084;7.478;2024-03-02T10:29:37;4.00;;;3.00;;
15096;SDS011;7649;52.084;7.478;2024-03-02T10:32:10;2.67;;;2.47;;
15096;SDS011;7649;52.084;7.478;2024-03-02T10:34:40;2.97;;;2.50;;
15096;SDS011;7649;52.084;7.478;2024-03-02T10:37:10;3.53;;;2.57;;
15096;SDS011;7649;52.084;7.478;2024-03-02T10:39:39;2.70;;;2.50;;
15096;SDS011;7649;52.084;7.478;2024-03-02T10:42:08;3.70;;;2.60;;
15096;SDS011;7649;52.084;7.478;2024-03-02T10:44:36;3.67;;;2.53;;
15096;SDS011;7649;52.084;7.478;2024-03-02T10:47:05;2.27;;;2.17;;
15096;SDS011;7649;52.084;7.478;2024-03-02T10:49:33;2.70;;;2.50;;
15096;SDS011;7649;52.084;7.478;2024-03-02T10:52:03;3.23;;;2.93;;
15096;SDS011;7649;52.084;7.478;2024-03-02T10:54:32;3.43;;;2.60;;
15096;SDS011;7649;52.084;7.478;2024-03-02T10:57:06;4.00;;;2.67;;
15096;SDS011;7649;52.084;7.478;2024-03-02T10:59:36;3.87;;;2.70;;
15096;SDS011;7649;52.084;7.478;2024-03-02T11:02:06;4.50;;;2.70;;
15096;SDS011;7649;52.084;7.478;2024-03-02T11:04:35;2.63;;;2.23;;
15096;SDS011;7649;52.084;7.478;2024-03-02T11:07:06;2.40;;;1.97;;
15096;SDS011;7649;52.084;7.478;2024-03-02T11:09:37;4.70;;;1.90;;
15096;SDS011;7649;52.084;7.478;2024-03-02T11:12:09;2.60;;;2.20;;
15096;SDS011;7649;52.084;7.478;2024-03-02T11:14:41;2.13;;;2.03;;
15096;SDS011;7649;52.084;7.478;2024-03-02T11:17:10;2.20;;;1.73;;
15096;SDS011;7649;52.084;7.478;2024-03-02T11:19:39;2.53;;;2.03;;
15096;SDS011;7649;52.084;7.478;2024-03-02T11:22:10;3.03;;;2.30;;
15096;SDS011;7649;52.084;7.478;2024-03-02T11:24:38;3.33;;;2.10;;
15096;SDS011;7649;52.084;7.478;2024-03-02T11:27:07;2.70;;;2.50;;
15096;SDS011;7649;52.084;7.478;2024-03-02T11:29:45;2.83;;;2.43;;
15096;SDS011;7649;52.084;7.478;2024-03-02T11:32:14;2.70;;;2.20;;
15096;SDS011;7649;52.084;7.478;2024-03-02T11:34:44;3.17;;;2.50;;
15096;SDS011;7649;52.084;7.478;2024-03-02T11:37:16;2.60;;;2.40;;
15096;SDS011;7649;52.084;7.478;2024-03-02T11:39:44;2.87;;;2.50;;
15096;SDS011;7649;52.084;7.478;2024-03-02T11:42:13;3.33;;;2.20;;
15096;SDS011;7649;52.084;7.478;2024-03-02T11:44:43;2.93;;;2.30;;
15096;SDS011;7649;52.084;7.478;2024-03-02T11:47:13;3.13;;;2.30;;
15096;SDS011;7649;52.084;7.478;2024-03-02T11:49:42;4.10;;;2.10;;
15096;SDS011;7649;52.084;7.478;2024-03-02T11:52:12;2.77;;;1.80;;
15096;SDS011;7649;52.084;7.478;2024-03-02T11:54:43;2.70;;;1.67;;
15096;SDS011;7649;52.084;7.478;2024-03-02T11:57:15;1.60;;;1.50;;
15096;SDS011;7649;52.084;7.478;2024-03-02T11:59:43;2.90;;;1.50;;
15096;SDS011;7649;52.084;7.478;2024-03-02T12:02:15;2.27;;;1.33;;
15096;SDS011;7649;52.084;7.478;2024-03-02T12:04:44;2.47;;;1.57;;
15096;SDS011;7649;52.084;7.478;2024-03-02T12:07:18;1.50;;;1.40;;
15096;SDS011;7649;52.084;7.478;2024-03-02T12:09:48;1.67;;;1.40;;
15096;SDS011;7649;52.084;7.478;2024-03-02T12:12:18;2.70;;;1.33;;
15096;SDS011;7649;52.084;7.478;2024-03-02T12:14:50;3.43;;;1.70;;
15096;SDS011;7649;52.084;7.478;2024-03-02T12:17:19;2.00;;;1.90;;
15096;SDS011;7649;52.084;7.478;2024-03-02T12:19:48;2.60;;;2.00;;
15096;SDS011;7649;52.084;7.478;2024-03-02T12:22:16;2.57;;;1.60;;
15096;SDS011;7649;52.084;7.478;2024-03-02T12:24:45;3.63;;;1.30;;
15096;SDS011;7649;52.084;7.478;2024-03-02T12:27:15;1.97;;;1.87;;
15096;SDS011;7649;52.084;7.478;2024-03-02T12:29:44;2.00;;;1.90;;
15096;SDS011;7649;52.084;7.478;2024-03-02T12:32:13;3.50;;;2.00;;
15096;SDS011;7649;52.084;7.478;2024-03-02T12:34:41;1.63;;;1.20;;
15096;SDS011;7649;52.084;7.478;2024-03-02T12:37:11;1.30;;;1.20;;
15096;SDS011;7649;52.084;7.478;2024-03-02T12:39:40;3.60;;;1.50;;
15096;SDS011;7649;52.084;7.478;2024-03-02T12:42:13;1.40;;;1.30;;
15096;SDS011;7649;52.084;7.478;2024-03-02T12:44:42;2.20;;;1.30;;
15096;SDS011;7649;52.084;7.478;2024-03-02T12:47:11;1.80;;;1.60;;
15096;SDS011;7649;52.084;7.478;2024-03-02T12:49:40;4.00;;;1.40;;
15096;SDS011;7649;52.084;7.478;2024-03-02T12:52:08;3.20;;;1.43;;
15096;SDS011;7649;52.084;7.478;2024-03-02T12:54:37;1.50;;;1.40;;
15096;SDS011;7649;52.084;7.478;2024-03-02T12:57:05;1.40;;;1.30;;
15096;SDS011;7649;52.084;7.478;2024-03-02T12:59:33;1.27;;;1.17;;
15096;SDS011;7649;52.084;7.478;2024-03-02T13:02:04;1.30;;;1.20;;
15096;SDS011;7649;52.084;7.478;2024-03-02T13:04:33;5.37;;;1.27;;
15096;SDS011;7649;52.084;7.478;2024-03-02T13:07:01;1.40;;;1.30;;
15096;SDS011;7649;52.084;7.478;2024-03-02T13:09:30;2.07;;;1.47;;
15096;SDS011;7649;52.084;7.478;2024-03-02T13:12:00;1.87;;;1.50;;
15096;SDS011;7649;52.084;7.478;2024-03-02T13:14:31;2.07;;;1.30;;
15096;SDS011;7649;52.084;7.478;2024-03-02T13:17:01;1.30;;;1.20;;
15096;SDS011;7649;52.084;7.478;2024-03-02T13:19:32;1.37;;;1.23;;
15096;SDS011;7649;52.084;7.478;2024-03-02T13:22:01;3.63;;;1.43;;
15096;SDS011;7649;52.084;7.478;2024-03-02T13:24:30;3.47;;;1.40;;
15096;SDS011;7649;52.084;7.478;2024-03-02T13:26:59;2.03;;;1.20;;
15096;SDS011;7649;52.084;7.478;2024-03-02T13:29:30;1.50;;;1.27;;
15096;SDS011;7649;52.084;7.478;2024-03-02T13:31:58;2.97;;;1.63;;
15096;SDS011;7649;52.084;7.478;2024-03-02T13:34:27;3.17;;;1.63;;
15096;SDS011;7649;52.084;7.478;2024-03-02T13:36:56;1.70;;;1.17;;
15096;SDS011;7649;52.084;7.478;2024-03-02T13:39:27;1.10;;;0.97;;
15096;SDS011;7649;52.084;7.478;2024-03-02T13:41:57;1.30;;;1.20;;
15096;SDS011;7649;52.084;7.478;2024-03-02T13:44:30;1.23;;;1.13;;
15096;SDS011;7649;52.084;7.478;2024-03-02T13:46:59;1.60;;;1.20;;
15096;SDS011;7649;52.084;7.478;2024-03-02T13:49:28;1.50;;;1.10;;
15096;SDS011;7649;52.084;7.478;2024-03-02T13:52:04;1.07;;;0.90;;
15096;SDS011;7649;52.084;7.478;2024-03-02T13:54:37;1.20;;;1.00;;
15096;SDS011;7649;52.084;7.478;2024-03-02T13:57:06;3.60;;;1.50;;
15096;SDS011;7649;52.084;7.478;2024-03-02T13:59:35;1.47;;;1.10;;
15096;SDS011;7649;52.084;7.478;2024-03-02T14:02:04;1.53;;;1.00;;
15096;SDS011;7649;52.084;7.478;2024-03-02T14:04:33;1.30;;;1.20;;
15096;SDS011;7649;52.084;7.478;2024-03-02T14:07:02;1.47;;;1.37;;
15096;SDS011;7649;52.084;7.478;2024-03-02T14:09:32;1.33;;;1.10;;
15096;SDS011;7649;52.084;7.478;2024-03-02T14:12:00;1.50;;;1.40;;
15096;SDS011;7649;52.084;7.478;2024-03-02T14:14:28;1.10;;;1.00;;
15096;SDS011;7649;52.084;7.478;2024-03-02T14:16:57;4.70;;;2.30;;
15096;SDS011;7649;52.084;7.478;2024-03-02T14:19:26;3.20;;;2.30;;
15096;SDS011;7649;52.084;7.478;2024-03-02T14:21:55;2.80;;;2.40;;
15096;SDS011;7649;52.084;7.478;2024-03-02T14:24:23;3.60;;;2.00;;
15096;SDS011;7649;52.084;7.478;2024-03-02T14:26:54;2.70;;;1.30;;
15096;SDS011;7649;52.084;7.478;2024-03-02T14:29:35;1.57;;;1.47;;
15096;SDS011;7649;52.084;7.478;2024-03-02T14:32:05;1.60;;;1.50;;
15096;SDS011;7649;52.084;7.478;2024-03-02T14:34:34;2.03;;;1.67;;
15096;SDS011;7649;52.084;7.478;2024-03-02T14:37:05;4.33;;;2.00;;
15096;SDS011;7649;52.084;7.478;2024-03-02T14:39:34;1.43;;;1.33;;
15096;SDS011;7649;52.084;7.478;2024-03-02T14:42:04;3.97;;;1.97;;
15096;SDS011;7649;52.084;7.478;2024-03-02T14:44:33;1.20;;;1.07;;
15096;SDS011;7649;52.084;7.478;2024-03-02T14:47:01;5.47;;;1.93;;
15096;SDS011;7649;52.084;7.478;2024-03-02T14:49:30;4.80;;;1.33;;
15096;SDS011;7649;52.084;7.478;2024-03-02T14:52:00;1.87;;;1.03;;
15096;SDS011;7649;52.084;7.478;2024-03-02T14:54:28;1.00;;;1.00;;
15096;SDS011;7649;52.084;7.478;2024-03-02T14:56:56;31.90;;;2.70;;
15096;SDS011;7649;52.084;7.478;2024-03-02T14:59:26;4.73;;;1.50;;
15096;SDS011;7649;52.084;7.478;2024-03-02T15:01:55;1.93;;;1.00;;
15096;SDS011;7649;52.084;7.478;2024-03-02T15:04:23;1.00;;;0.97;;
15096;SDS011;7649;52.084;7.478;2024-03-02T15:06:53;1.23;;;0.73;;
15096;SDS011;7649;52.084;7.478;2024-03-02T15:09:21;3.17;;;1.20;;
15096;SDS011;7649;52.084;7.478;2024-03-02T15:11:49;12.60;;;1.70;;
15096;SDS011;7649;52.084;7.478;2024-03-02T15:14:18;3.47;;;1.40;;